sensor_id;sensor_type;location;lat;lon;timestamp;P1;durP1;ratioP1;P2;durP2;ratioP2
58669;SDS011;44439;47.924;10.198;2023-03-21T00:00:56;5.18;;;2.95;;
58669;SDS011;44439;47.924;10.198;2023-03-21T00:03:43;5.07;;;3.30;;
58669;SDS011;44439;47.924;10.198;2023-03-21T00:06:31;4.18;;;2.63;;
58669;SDS011;44439;47.924;10.198;2023-03-21T00:09:16;2.40;;;2.20;;
58669;SDS011;44439;47.924;10.198;2023-03-21T00:12:02;4.95;;;2.30;;
58669;SDS011;44439;47.924;10.198;2023-03-21T00:14:51;4.50;;;2.22;;
58669;SDS011;44439;47.924;10.198;2023-03-21T00:17:38;3.83;;;2.50;;
58669;SDS011;44439;47.924;10.198;2023-03-21T00:20:24;2.92;;;2.30;;
58669;SDS011;44439;47.924;10.198;2023-03-21T00:23:09;3.78;;;2.20;;
58669;SDS011;44439;47.924;10.198;2023-03-21T00:25:55;3.20;;;2.20;;
58669;SDS011;44439;47.924;10.198;2023-03-21T00:28:41;2.90;;;2.20;;
58669;SDS011;44439;47.924;10.198;2023-03-21T00:31:27;6.53;;;2.88;;
58669;SDS011;44439;47.924;10.198;2023-03-21T00:34:13;6.18;;;3.20;;
58669;SDS011;44439;47.924;10.198;2023-03-21T00:36:59;4.03;;;2.80;;
58669;SDS011;44439;47.924;10.198;2023-03-21T00:39:46;4.10;;;3.00;;
58669;SDS011;44439;47.924;10.198;2023-03-21T00:42:33;4.18;;;3.30;;
58669;SDS011;44439;47.924;10.198;2023-03-21T00:45:19;7.57;;;2.70;;
58669;SDS011;44439;47.924;10.198;2023-03-21T00:48:07;5.47;;;3.20;;
58669;SDS011;44439;47.924;10.198;2023-03-21T00:50:53;3.78;;;2.92;;
58669;SDS011;44439;47.924;10.198;2023-03-21T00:53:41;3.40;;;2.88;;
58669;SDS011;44439;47.924;10.198;2023-03-21T00:56:27;4.35;;;2.95;;
58669;SDS011;44439;47.924;10.198;2023-03-21T00:59:12;3.88;;;3.10;;
58669;SDS011;44439;47.924;10.198;2023-03-21T01:01:58;4.75;;;3.40;;
58669;SDS011;44439;47.924;10.198;2023-03-21T01:04:54;4.40;;;3.22;;
58669;SDS011;44439;47.924;10.198;2023-03-21T01:07:40;6.28;;;2.47;;
58669;SDS011;44439;47.924;10.198;2023-03-21T01:10:25;3.65;;;2.30;;
58669;SDS011;44439;47.924;10.198;2023-03-21T01:13:12;2.70;;;2.20;;
58669;SDS011;44439;47.924;10.198;2023-03-21T01:16:00;4.10;;;2.35;;
58669;SDS011;44439;47.924;10.198;2023-03-21T01:18:46;2.67;;;2.03;;
58669;SDS011;44439;47.924;10.198;2023-03-21T01:21:31;4.35;;;2.38;;
58669;SDS011;44439;47.924;10.198;2023-03-21T01:24:17;3.63;;;2.50;;
58669;SDS011;44439;47.924;10.198;2023-03-21T01:27:03;2.88;;;2.58;;
58669;SDS011;44439;47.924;10.198;2023-03-21T01:29:49;3.50;;;2.25;;
58669;SDS011;44439;47.924;10.198;2023-03-21T01:32:34;4.45;;;2.63;;
58669;SDS011;44439;47.924;10.198;2023-03-21T01:35:20;3.35;;;2.63;;
58669;SDS011;44439;47.924;10.198;2023-03-21T01:38:06;4.07;;;3.13;;
58669;SDS011;44439;47.924;10.198;2023-03-21T01:40:51;5.65;;;3.00;;
58669;SDS011;44439;47.924;10.198;2023-03-21T01:43:37;4.03;;;3.10;;
58669;SDS011;44439;47.924;10.198;2023-03-21T01:46:30;3.63;;;3.20;;
58669;SDS011;44439;47.924;10.198;2023-03-21T01:49:19;3.75;;;3.05;;
58669;SDS011;44439;47.924;10.198;2023-03-21T01:52:13;4.20;;;3.00;;
58669;SDS011;44439;47.924;10.198;2023-03-21T01:55:01;3.92;;;2.90;;
58669;SDS011;44439;47.924;10.198;2023-03-21T01:57:50;3.42;;;2.15;;
58669;SDS011;44439;47.924;10.198;2023-03-21T02:00:37;3.00;;;2.40;;
58669;SDS011;44439;47.924;10.198;2023-03-21T02:03:23;4.43;;;3.15;;
58669;SDS011;44439;47.924;10.198;2023-03-21T02:06:12;4.43;;;2.83;;
58669;SDS011;44439;47.924;10.198;2023-03-21T02:09:00;2.60;;;2.40;;
58669;SDS011;44439;47.924;10.198;2023-03-21T02:11:48;3.40;;;3.10;;
58669;SDS011;44439;47.924;10.198;2023-03-21T02:14:34;5.88;;;3.00;;
58669;SDS011;44439;47.924;10.198;2023-03-21T02:29:06;4.55;;;3.42;;
58669;SDS011;44439;47.924;10.198;2023-03-21T02:32:18;3.58;;;3.10;;
58669;SDS011;44439;47.924;10.198;2023-03-21T02:38:35;3.90;;;3.15;;
58669;SDS011;44439;47.924;10.198;2023-03-21T02:44:37;3.95;;;2.55;;
58669;SDS011;44439;47.924;10.198;2023-03-21T02:47:33;3.95;;;3.10;;
58669;SDS011;44439;47.924;10.198;2023-03-21T02:50:49;3.13;;;2.60;;
58669;SDS011;44439;47.924;10.198;2023-03-21T02:53:37;4.55;;;2.70;;
58669;SDS011;44439;47.924;10.198;2023-03-21T02:56:24;3.47;;;2.97;;
58669;SDS011;44439;47.924;10.198;2023-03-21T02:59:11;4.43;;;3.47;;
58669;SDS011;44439;47.924;10.198;2023-03-21T03:01:58;3.72;;;3.15;;
58669;SDS011;44439;47.924;10.198;2023-03-21T03:04:44;4.63;;;2.83;;
58669;SDS011;44439;47.924;10.198;2023-03-21T03:07:32;4.50;;;3.40;;
58669;SDS011;44439;47.924;10.198;2023-03-21T03:16:33;4.90;;;3.17;;
58669;SDS011;44439;47.924;10.198;2023-03-21T03:19:27;3.53;;;2.80;;
58669;SDS011;44439;47.924;10.198;2023-03-21T03:22:17;3.88;;;3.47;;
58669;SDS011;44439;47.924;10.198;2023-03-21T03:25:08;3.47;;;3.17;;
58669;SDS011;44439;47.924;10.198;2023-03-21T03:27:56;3.47;;;3.00;;
58669;SDS011;44439;47.924;10.198;2023-03-21T03:30:43;3.58;;;2.90;;
58669;SDS011;44439;47.924;10.198;2023-03-21T03:33:29;3.90;;;3.05;;
58669;SDS011;44439;47.924;10.198;2023-03-21T03:36:16;5.75;;;2.80;;
58669;SDS011;44439;47.924;10.198;2023-03-21T03:39:04;2.80;;;2.35;;
58669;SDS011;44439;47.924;10.198;2023-03-21T03:41:54;3.63;;;2.80;;
58669;SDS011;44439;47.924;10.198;2023-03-21T03:44:43;5.20;;;3.47;;
58669;SDS011;44439;47.924;10.198;2023-03-21T03:47:33;3.97;;;3.15;;
58669;SDS011;44439;47.924;10.198;2023-03-21T03:53:26;3.60;;;2.88;;
58669;SDS011;44439;47.924;10.198;2023-03-21T03:56:13;3.40;;;2.85;;
58669;SDS011;44439;47.924;10.198;2023-03-21T03:59:00;4.45;;;2.95;;
58669;SDS011;44439;47.924;10.198;2023-03-21T04:01:46;4.93;;;3.88;;
58669;SDS011;44439;47.924;10.198;2023-03-21T04:04:32;4.35;;;3.58;;
58669;SDS011;44439;47.924;10.198;2023-03-21T04:07:19;6.25;;;3.30;;
58669;SDS011;44439;47.924;10.198;2023-03-21T04:10:05;6.18;;;3.40;;
58669;SDS011;44439;47.924;10.198;2023-03-21T04:12:51;4.68;;;3.55;;
58669;SDS011;44439;47.924;10.198;2023-03-21T04:15:37;4.65;;;3.20;;
58669;SDS011;44439;47.924;10.198;2023-03-21T04:18:22;4.13;;;3.65;;
58669;SDS011;44439;47.924;10.198;2023-03-21T04:21:09;4.88;;;3.20;;
58669;SDS011;44439;47.924;10.198;2023-03-21T04:23:57;3.55;;;3.05;;
58669;SDS011;44439;47.924;10.198;2023-03-21T04:26:42;4.07;;;2.88;;
58669;SDS011;44439;47.924;10.198;2023-03-21T04:29:28;3.85;;;2.72;;
58669;SDS011;44439;47.924;10.198;2023-03-21T04:32:14;3.30;;;3.00;;
58669;SDS011;44439;47.924;10.198;2023-03-21T04:35:04;4.30;;;3.20;;
58669;SDS011;44439;47.924;10.198;2023-03-21T04:37:51;4.15;;;3.08;;
58669;SDS011;44439;47.924;10.198;2023-03-21T04:40:36;3.85;;;2.80;;
58669;SDS011;44439;47.924;10.198;2023-03-21T04:43:22;4.78;;;2.95;;
58669;SDS011;44439;47.924;10.198;2023-03-21T04:46:08;3.75;;;3.00;;
58669;SDS011;44439;47.924;10.198;2023-03-21T04:48:54;3.83;;;2.50;;
58669;SDS011;44439;47.924;10.198;2023-03-21T04:51:40;3.85;;;2.63;;
58669;SDS011;44439;47.924;10.198;2023-03-21T04:54:28;3.67;;;2.78;;
58669;SDS011;44439;47.924;10.198;2023-03-21T04:57:14;2.85;;;2.53;;
58669;SDS011;44439;47.924;10.198;2023-03-21T05:00:00;3.70;;;3.08;;
58669;SDS011;44439;47.924;10.198;2023-03-21T05:02:46;5.07;;;3.30;;
58669;SDS011;44439;47.924;10.198;2023-03-21T05:05:31;5.15;;;3.03;;
58669;SDS011;44439;47.924;10.198;2023-03-21T05:08:18;3.88;;;2.40;;
58669;SDS011;44439;47.924;10.198;2023-03-21T05:11:03;3.53;;;2.80;;
58669;SDS011;44439;47.924;10.198;2023-03-21T05:13:49;4.80;;;2.95;;
58669;SDS011;44439;47.924;10.198;2023-03-21T05:16:35;3.17;;;2.47;;
58669;SDS011;44439;47.924;10.198;2023-03-21T05:19:24;2.90;;;2.67;;
58669;SDS011;44439;47.924;10.198;2023-03-21T05:22:19;3.00;;;2.72;;
58669;SDS011;44439;47.924;10.198;2023-03-21T05:25:08;3.50;;;2.63;;
58669;SDS011;44439;47.924;10.198;2023-03-21T05:27:54;4.37;;;2.90;;
58669;SDS011;44439;47.924;10.198;2023-03-21T05:30:40;4.30;;;3.30;;
58669;SDS011;44439;47.924;10.198;2023-03-21T05:33:25;5.15;;;2.83;;
58669;SDS011;44439;47.924;10.198;2023-03-21T05:36:11;4.78;;;2.70;;
58669;SDS011;44439;47.924;10.198;2023-03-21T05:38:57;7.15;;;3.65;;
58669;SDS011;44439;47.924;10.198;2023-03-21T05:41:43;5.43;;;3.50;;
58669;SDS011;44439;47.924;10.198;2023-03-21T05:44:28;4.10;;;2.95;;
58669;SDS011;44439;47.924;10.198;2023-03-21T05:47:15;5.55;;;3.03;;
58669;SDS011;44439;47.924;10.198;2023-03-21T05:50:01;5.07;;;2.83;;
58669;SDS011;44439;47.924;10.198;2023-03-21T05:52:47;5.20;;;3.08;;
58669;SDS011;44439;47.924;10.198;2023-03-21T05:55:32;3.08;;;2.67;;
58669;SDS011;44439;47.924;10.198;2023-03-21T05:58:18;3.65;;;3.05;;
58669;SDS011;44439;47.924;10.198;2023-03-21T06:01:04;4.70;;;3.15;;
58669;SDS011;44439;47.924;10.198;2023-03-21T06:03:50;4.15;;;2.90;;
58669;SDS011;44439;47.924;10.198;2023-03-21T06:06:36;9.10;;;5.78;;
58669;SDS011;44439;47.924;10.198;2023-03-21T06:09:22;13.88;;;8.23;;
58669;SDS011;44439;47.924;10.198;2023-03-21T06:12:08;9.60;;;5.85;;
58669;SDS011;44439;47.924;10.198;2023-03-21T06:14:53;8.70;;;5.10;;
58669;SDS011;44439;47.924;10.198;2023-03-21T06:17:39;7.35;;;5.10;;
58669;SDS011;44439;47.924;10.198;2023-03-21T06:20:25;7.13;;;4.20;;
58669;SDS011;44439;47.924;10.198;2023-03-21T06:23:11;6.43;;;4.32;;
58669;SDS011;44439;47.924;10.198;2023-03-21T06:25:56;6.22;;;3.92;;
58669;SDS011;44439;47.924;10.198;2023-03-21T06:28:42;4.90;;;3.92;;
58669;SDS011;44439;47.924;10.198;2023-03-21T06:31:28;5.60;;;3.88;;
58669;SDS011;44439;47.924;10.198;2023-03-21T06:34:13;7.10;;;3.70;;
58669;SDS011;44439;47.924;10.198;2023-03-21T06:36:59;7.40;;;3.38;;
58669;SDS011;44439;47.924;10.198;2023-03-21T06:39:45;7.10;;;4.10;;
58669;SDS011;44439;47.924;10.198;2023-03-21T06:42:31;6.00;;;3.35;;
58669;SDS011;44439;47.924;10.198;2023-03-21T06:45:18;4.43;;;3.70;;
58669;SDS011;44439;47.924;10.198;2023-03-21T06:48:04;5.18;;;3.75;;
58669;SDS011;44439;47.924;10.198;2023-03-21T06:50:50;7.10;;;4.00;;
58669;SDS011;44439;47.924;10.198;2023-03-21T06:53:36;4.75;;;3.53;;
58669;SDS011;44439;47.924;10.198;2023-03-21T06:56:22;7.53;;;3.45;;
58669;SDS011;44439;47.924;10.198;2023-03-21T06:59:07;4.28;;;3.45;;
58669;SDS011;44439;47.924;10.198;2023-03-21T07:01:53;4.10;;;3.33;;
58669;SDS011;44439;47.924;10.198;2023-03-21T07:04:39;4.53;;;3.30;;
58669;SDS011;44439;47.924;10.198;2023-03-21T07:07:25;4.72;;;3.58;;
58669;SDS011;44439;47.924;10.198;2023-03-21T07:10:11;5.40;;;3.60;;
58669;SDS011;44439;47.924;10.198;2023-03-21T07:12:58;6.57;;;3.92;;
58669;SDS011;44439;47.924;10.198;2023-03-21T07:15:44;5.10;;;4.13;;
58669;SDS011;44439;47.924;10.198;2023-03-21T07:18:29;4.60;;;3.80;;
58669;SDS011;44439;47.924;10.198;2023-03-21T07:21:15;6.82;;;3.70;;
58669;SDS011;44439;47.924;10.198;2023-03-21T07:24:02;6.88;;;4.05;;
58669;SDS011;44439;47.924;10.198;2023-03-21T07:26:47;4.90;;;3.90;;
58669;SDS011;44439;47.924;10.198;2023-03-21T07:29:33;5.43;;;3.72;;
58669;SDS011;44439;47.924;10.198;2023-03-21T07:32:19;4.85;;;4.00;;
58669;SDS011;44439;47.924;10.198;2023-03-21T07:35:05;5.90;;;3.58;;
58669;SDS011;44439;47.924;10.198;2023-03-21T07:37:52;5.88;;;4.55;;
58669;SDS011;44439;47.924;10.198;2023-03-21T07:40:38;6.15;;;4.20;;
58669;SDS011;44439;47.924;10.198;2023-03-21T07:43:23;7.32;;;4.20;;
58669;SDS011;44439;47.924;10.198;2023-03-21T07:46:09;5.03;;;4.40;;
58669;SDS011;44439;47.924;10.198;2023-03-21T07:48:55;9.40;;;5.30;;
58669;SDS011;44439;47.924;10.198;2023-03-21T07:51:40;8.82;;;4.80;;
58669;SDS011;44439;47.924;10.198;2023-03-21T07:54:26;9.88;;;4.00;;
58669;SDS011;44439;47.924;10.198;2023-03-21T07:57:13;9.43;;;7.97;;
58669;SDS011;44439;47.924;10.198;2023-03-21T07:59:58;4.85;;;3.83;;
58669;SDS011;44439;47.924;10.198;2023-03-21T08:02:44;8.88;;;4.15;;
58669;SDS011;44439;47.924;10.198;2023-03-21T08:05:33;7.07;;;3.70;;
58669;SDS011;44439;47.924;10.198;2023-03-21T08:08:19;5.82;;;3.63;;
58669;SDS011;44439;47.924;10.198;2023-03-21T08:11:05;4.90;;;3.67;;
58669;SDS011;44439;47.924;10.198;2023-03-21T08:13:51;4.93;;;3.58;;
58669;SDS011;44439;47.924;10.198;2023-03-21T08:16:38;8.20;;;3.38;;
58669;SDS011;44439;47.924;10.198;2023-03-21T08:19:23;6.47;;;3.50;;
58669;SDS011;44439;47.924;10.198;2023-03-21T08:22:11;5.80;;;3.63;;
58669;SDS011;44439;47.924;10.198;2023-03-21T08:24:56;7.18;;;4.35;;
58669;SDS011;44439;47.924;10.198;2023-03-21T08:27:42;10.90;;;4.10;;
58669;SDS011;44439;47.924;10.198;2023-03-21T08:30:29;5.82;;;4.70;;
58669;SDS011;44439;47.924;10.198;2023-03-21T08:33:15;6.03;;;3.60;;
58669;SDS011;44439;47.924;10.198;2023-03-21T08:36:03;7.60;;;3.80;;
58669;SDS011;44439;47.924;10.198;2023-03-21T08:38:49;7.35;;;3.58;;
58669;SDS011;44439;47.924;10.198;2023-03-21T08:41:39;6.80;;;4.10;;
58669;SDS011;44439;47.924;10.198;2023-03-21T08:44:25;4.47;;;3.70;;
58669;SDS011;44439;47.924;10.198;2023-03-21T08:47:11;4.60;;;3.75;;
58669;SDS011;44439;47.924;10.198;2023-03-21T08:49:57;5.88;;;5.10;;
58669;SDS011;44439;47.924;10.198;2023-03-21T08:52:43;5.07;;;4.13;;
58669;SDS011;44439;47.924;10.198;2023-03-21T08:55:29;5.20;;;3.97;;
58669;SDS011;44439;47.924;10.198;2023-03-21T08:58:17;3.80;;;3.40;;
58669;SDS011;44439;47.924;10.198;2023-03-21T09:01:03;4.25;;;3.80;;
58669;SDS011;44439;47.924;10.198;2023-03-21T09:03:51;5.05;;;3.58;;
58669;SDS011;44439;47.924;10.198;2023-03-21T09:06:37;4.82;;;3.80;;
58669;SDS011;44439;47.924;10.198;2023-03-21T09:09:25;4.40;;;3.50;;
58669;SDS011;44439;47.924;10.198;2023-03-21T09:12:12;4.88;;;3.55;;
58669;SDS011;44439;47.924;10.198;2023-03-21T09:14:57;4.82;;;3.80;;
58669;SDS011;44439;47.924;10.198;2023-03-21T09:17:43;4.43;;;3.60;;
58669;SDS011;44439;47.924;10.198;2023-03-21T09:20:33;5.80;;;3.72;;
58669;SDS011;44439;47.924;10.198;2023-03-21T09:23:22;6.93;;;4.07;;
58669;SDS011;44439;47.924;10.198;2023-03-21T09:26:08;6.50;;;4.68;;
58669;SDS011;44439;47.924;10.198;2023-03-21T09:28:55;5.72;;;4.32;;
58669;SDS011;44439;47.924;10.198;2023-03-21T09:31:40;8.07;;;6.03;;
58669;SDS011;44439;47.924;10.198;2023-03-21T09:34:28;5.55;;;4.28;;
58669;SDS011;44439;47.924;10.198;2023-03-21T09:37:13;5.22;;;4.65;;
58669;SDS011;44439;47.924;10.198;2023-03-21T09:40:00;5.97;;;4.88;;
58669;SDS011;44439;47.924;10.198;2023-03-21T09:43:03;6.63;;;4.70;;
58669;SDS011;44439;47.924;10.198;2023-03-21T09:46:00;5.90;;;4.68;;
58669;SDS011;44439;47.924;10.198;2023-03-21T09:52:03;7.20;;;5.15;;
58669;SDS011;44439;47.924;10.198;2023-03-21T09:57:39;5.15;;;3.67;;
58669;SDS011;44439;47.924;10.198;2023-03-21T10:00:29;5.85;;;3.80;;
58669;SDS011;44439;47.924;10.198;2023-03-21T10:03:20;4.00;;;3.45;;
58669;SDS011;44439;47.924;10.198;2023-03-21T10:06:12;5.78;;;3.42;;
58669;SDS011;44439;47.924;10.198;2023-03-21T10:09:07;3.95;;;3.30;;
58669;SDS011;44439;47.924;10.198;2023-03-21T10:12:05;4.10;;;3.50;;
58669;SDS011;44439;47.924;10.198;2023-03-21T10:14:59;4.60;;;3.28;;
58669;SDS011;44439;47.924;10.198;2023-03-21T10:17:51;4.18;;;2.78;;
58669;SDS011;44439;47.924;10.198;2023-03-21T10:20:40;3.47;;;3.03;;
58669;SDS011;44439;47.924;10.198;2023-03-21T10:23:27;5.15;;;2.90;;
58669;SDS011;44439;47.924;10.198;2023-03-21T10:26:13;4.57;;;2.92;;
58669;SDS011;44439;47.924;10.198;2023-03-21T10:28:59;3.20;;;2.50;;
58669;SDS011;44439;47.924;10.198;2023-03-21T10:31:46;3.92;;;3.08;;
58669;SDS011;44439;47.924;10.198;2023-03-21T10:34:36;3.40;;;3.10;;
58669;SDS011;44439;47.924;10.198;2023-03-21T10:37:25;4.32;;;3.33;;
58669;SDS011;44439;47.924;10.198;2023-03-21T10:40:15;4.65;;;2.58;;
58669;SDS011;44439;47.924;10.198;2023-03-21T10:49:18;4.32;;;2.67;;
58669;SDS011;44439;47.924;10.198;2023-03-21T10:52:06;3.25;;;2.80;;
58669;SDS011;44439;47.924;10.198;2023-03-21T10:55:03;2.58;;;2.38;;
58669;SDS011;44439;47.924;10.198;2023-03-21T10:58:13;3.30;;;2.33;;
58669;SDS011;44439;47.924;10.198;2023-03-21T11:01:04;4.20;;;2.78;;
58669;SDS011;44439;47.924;10.198;2023-03-21T11:03:54;4.30;;;2.72;;
58669;SDS011;44439;47.924;10.198;2023-03-21T11:09:52;3.60;;;2.20;;
58669;SDS011;44439;47.924;10.198;2023-03-21T11:12:40;4.05;;;2.42;;
58669;SDS011;44439;47.924;10.198;2023-03-21T11:15:30;3.15;;;2.83;;
58669;SDS011;44439;47.924;10.198;2023-03-21T11:18:19;4.22;;;3.03;;
58669;SDS011;44439;47.924;10.198;2023-03-21T11:21:07;3.03;;;2.72;;
58669;SDS011;44439;47.924;10.198;2023-03-21T11:23:55;3.72;;;2.28;;
58669;SDS011;44439;47.924;10.198;2023-03-21T11:26:42;2.67;;;2.47;;
58669;SDS011;44439;47.924;10.198;2023-03-21T11:29:33;2.63;;;2.30;;
58669;SDS011;44439;47.924;10.198;2023-03-21T11:35:19;3.00;;;2.53;;
58669;SDS011;44439;47.924;10.198;2023-03-21T11:38:23;3.30;;;2.45;;
58669;SDS011;44439;47.924;10.198;2023-03-21T11:41:11;2.85;;;2.50;;
58669;SDS011;44439;47.924;10.198;2023-03-21T11:44:27;2.42;;;2.05;;
58669;SDS011;44439;47.924;10.198;2023-03-21T11:47:19;3.13;;;2.42;;
58669;SDS011;44439;47.924;10.198;2023-03-21T11:50:13;3.45;;;2.10;;
58669;SDS011;44439;47.924;10.198;2023-03-21T11:53:10;2.40;;;2.20;;
58669;SDS011;44439;47.924;10.198;2023-03-21T12:05:55;2.60;;;2.33;;
58669;SDS011;44439;47.924;10.198;2023-03-21T12:09:01;4.10;;;2.30;;
58669;SDS011;44439;47.924;10.198;2023-03-21T12:11:55;3.85;;;2.10;;
58669;SDS011;44439;47.924;10.198;2023-03-21T12:18:32;3.55;;;2.20;;
58669;SDS011;44439;47.924;10.198;2023-03-21T12:21:09;2.22;;;1.70;;
58669;SDS011;44439;47.924;10.198;2023-03-21T12:24:08;2.22;;;2.03;;
58669;SDS011;44439;47.924;10.198;2023-03-21T12:26:56;2.42;;;2.10;;
58669;SDS011;44439;47.924;10.198;2023-03-21T12:30:00;2.10;;;1.90;;
58669;SDS011;44439;47.924;10.198;2023-03-21T12:39:26;2.05;;;1.85;;
58669;SDS011;44439;47.924;10.198;2023-03-21T12:42:27;2.55;;;2.15;;
58669;SDS011;44439;47.924;10.198;2023-03-21T12:45:29;3.15;;;2.50;;
58669;SDS011;44439;47.924;10.198;2023-03-21T12:48:19;3.35;;;2.35;;
58669;SDS011;44439;47.924;10.198;2023-03-21T12:51:20;3.40;;;2.25;;
58669;SDS011;44439;47.924;10.198;2023-03-21T12:54:16;2.90;;;2.25;;
58669;SDS011;44439;47.924;10.198;2023-03-21T12:57:12;2.40;;;2.20;;
58669;SDS011;44439;47.924;10.198;2023-03-21T13:00:13;2.65;;;2.45;;
58669;SDS011;44439;47.924;10.198;2023-03-21T13:03:03;2.63;;;2.42;;
58669;SDS011;44439;47.924;10.198;2023-03-21T13:05:51;3.83;;;2.50;;
58669;SDS011;44439;47.924;10.198;2023-03-21T13:11:48;3.60;;;2.65;;
58669;SDS011;44439;47.924;10.198;2023-03-21T13:14:37;3.10;;;2.80;;
58669;SDS011;44439;47.924;10.198;2023-03-21T13:17:37;2.50;;;2.30;;
58669;SDS011;44439;47.924;10.198;2023-03-21T13:20:42;5.22;;;3.05;;
58669;SDS011;44439;47.924;10.198;2023-03-21T13:23:33;5.20;;;3.03;;
58669;SDS011;44439;47.924;10.198;2023-03-21T13:26:30;3.40;;;3.08;;
58669;SDS011;44439;47.924;10.198;2023-03-21T13:35:23;3.05;;;2.75;;
58669;SDS011;44439;47.924;10.198;2023-03-21T13:38:19;3.47;;;3.15;;
58669;SDS011;44439;47.924;10.198;2023-03-21T13:41:12;3.30;;;3.00;;
58669;SDS011;44439;47.924;10.198;2023-03-21T13:46:58;3.75;;;3.22;;
58669;SDS011;44439;47.924;10.198;2023-03-21T13:49:44;3.30;;;2.95;;
58669;SDS011;44439;47.924;10.198;2023-03-21T13:55:56;3.63;;;3.25;;
58669;SDS011;44439;47.924;10.198;2023-03-21T14:04:15;2.75;;;1.60;;
58669;SDS011;44439;47.924;10.198;2023-03-21T14:07:07;1.83;;;1.73;;
58669;SDS011;44439;47.924;10.198;2023-03-21T14:09:57;2.58;;;1.70;;
58669;SDS011;44439;47.924;10.198;2023-03-21T14:12:45;3.08;;;1.58;;
58669;SDS011;44439;47.924;10.198;2023-03-21T14:15:39;2.20;;;1.60;;
58669;SDS011;44439;47.924;10.198;2023-03-21T14:18:28;1.92;;;1.48;;
58669;SDS011;44439;47.924;10.198;2023-03-21T14:21:21;3.70;;;1.67;;
58669;SDS011;44439;47.924;10.198;2023-03-21T14:24:12;2.58;;;1.40;;
58669;SDS011;44439;47.924;10.198;2023-03-21T14:26:58;1.40;;;1.10;;
58669;SDS011;44439;47.924;10.198;2023-03-21T14:29:46;1.50;;;1.40;;
58669;SDS011;44439;47.924;10.198;2023-03-21T14:32:33;2.47;;;1.70;;
58669;SDS011;44439;47.924;10.198;2023-03-21T14:35:19;2.58;;;1.40;;
58669;SDS011;44439;47.924;10.198;2023-03-21T14:38:06;4.25;;;1.85;;
58669;SDS011;44439;47.924;10.198;2023-03-21T14:40:54;3.28;;;1.77;;
58669;SDS011;44439;47.924;10.198;2023-03-21T14:43:41;4.60;;;1.63;;
58669;SDS011;44439;47.924;10.198;2023-03-21T14:46:27;2.60;;;1.60;;
58669;SDS011;44439;47.924;10.198;2023-03-21T14:49:20;1.88;;;1.65;;
58669;SDS011;44439;47.924;10.198;2023-03-21T14:52:13;3.35;;;1.90;;
58669;SDS011;44439;47.924;10.198;2023-03-21T14:55:04;3.78;;;2.08;;
58669;SDS011;44439;47.924;10.198;2023-03-21T14:57:57;3.95;;;2.10;;
58669;SDS011;44439;47.924;10.198;2023-03-21T15:00:45;2.13;;;1.90;;
58669;SDS011;44439;47.924;10.198;2023-03-21T15:03:33;2.65;;;2.03;;
58669;SDS011;44439;47.924;10.198;2023-03-21T15:06:18;4.07;;;2.20;;
58669;SDS011;44439;47.924;10.198;2023-03-21T15:09:04;3.33;;;2.17;;
58669;SDS011;44439;47.924;10.198;2023-03-21T15:11:50;3.60;;;2.60;;
58669;SDS011;44439;47.924;10.198;2023-03-21T15:14:36;3.42;;;2.72;;
58669;SDS011;44439;47.924;10.198;2023-03-21T15:17:22;3.30;;;2.70;;
58669;SDS011;44439;47.924;10.198;2023-03-21T15:20:15;4.05;;;2.58;;
58669;SDS011;44439;47.924;10.198;2023-03-21T15:23:02;5.03;;;2.63;;
58669;SDS011;44439;47.924;10.198;2023-03-21T15:25:50;3.00;;;2.67;;
58669;SDS011;44439;47.924;10.198;2023-03-21T15:28:36;3.50;;;3.10;;
58669;SDS011;44439;47.924;10.198;2023-03-21T15:31:29;4.50;;;2.90;;
58669;SDS011;44439;47.924;10.198;2023-03-21T15:34:23;3.70;;;2.80;;
58669;SDS011;44439;47.924;10.198;2023-03-21T15:37:17;4.15;;;2.40;;
58669;SDS011;44439;47.924;10.198;2023-03-21T15:40:17;3.33;;;2.60;;
58669;SDS011;44439;47.924;10.198;2023-03-21T15:43:24;3.40;;;2.90;;
58669;SDS011;44439;47.924;10.198;2023-03-21T15:46:16;3.85;;;3.10;;
58669;SDS011;44439;47.924;10.198;2023-03-21T15:49:32;4.20;;;2.83;;
58669;SDS011;44439;47.924;10.198;2023-03-21T15:52:18;4.50;;;2.88;;
58669;SDS011;44439;47.924;10.198;2023-03-21T15:55:14;2.50;;;2.28;;
58669;SDS011;44439;47.924;10.198;2023-03-21T15:58:03;3.20;;;2.28;;
58669;SDS011;44439;47.924;10.198;2023-03-21T16:00:55;4.25;;;2.53;;
58669;SDS011;44439;47.924;10.198;2023-03-21T16:03:42;3.13;;;2.60;;
58669;SDS011;44439;47.924;10.198;2023-03-21T16:06:32;3.35;;;2.55;;
58669;SDS011;44439;47.924;10.198;2023-03-21T16:09:19;3.22;;;2.45;;
58669;SDS011;44439;47.924;10.198;2023-03-21T16:12:12;4.10;;;3.08;;
58669;SDS011;44439;47.924;10.198;2023-03-21T16:14:59;4.57;;;3.85;;
58669;SDS011;44439;47.924;10.198;2023-03-21T16:17:50;3.38;;;2.83;;
58669;SDS011;44439;47.924;10.198;2023-03-21T16:20:43;3.70;;;3.10;;
58669;SDS011;44439;47.924;10.198;2023-03-21T16:23:30;4.85;;;3.35;;
58669;SDS011;44439;47.924;10.198;2023-03-21T16:26:17;4.00;;;3.30;;
58669;SDS011;44439;47.924;10.198;2023-03-21T16:29:05;3.92;;;2.70;;
58669;SDS011;44439;47.924;10.198;2023-03-21T16:31:52;3.30;;;2.85;;
58669;SDS011;44439;47.924;10.198;2023-03-21T16:34:38;4.93;;;4.25;;
58669;SDS011;44439;47.924;10.198;2023-03-21T16:37:26;4.45;;;3.72;;
58669;SDS011;44439;47.924;10.198;2023-03-21T16:40:16;3.55;;;3.25;;
58669;SDS011;44439;47.924;10.198;2023-03-21T16:43:07;4.90;;;3.30;;
58669;SDS011;44439;47.924;10.198;2023-03-21T16:45:53;6.45;;;3.25;;
58669;SDS011;44439;47.924;10.198;2023-03-21T16:48:39;4.68;;;3.10;;
58669;SDS011;44439;47.924;10.198;2023-03-21T16:51:29;4.10;;;3.03;;
58669;SDS011;44439;47.924;10.198;2023-03-21T16:54:21;4.13;;;3.10;;
58669;SDS011;44439;47.924;10.198;2023-03-21T16:57:08;5.72;;;3.55;;
58669;SDS011;44439;47.924;10.198;2023-03-21T17:00:04;5.00;;;3.78;;
58669;SDS011;44439;47.924;10.198;2023-03-21T17:02:56;3.63;;;3.33;;
58669;SDS011;44439;47.924;10.198;2023-03-21T17:05:45;4.22;;;3.45;;
58669;SDS011;44439;47.924;10.198;2023-03-21T17:08:30;3.90;;;3.30;;
58669;SDS011;44439;47.924;10.198;2023-03-21T17:11:17;3.80;;;3.13;;
58669;SDS011;44439;47.924;10.198;2023-03-21T17:14:04;3.60;;;2.95;;
58669;SDS011;44439;47.924;10.198;2023-03-21T17:16:50;6.03;;;3.80;;
58669;SDS011;44439;47.924;10.198;2023-03-21T17:19:36;16.13;;;12.07;;
58669;SDS011;44439;47.924;10.198;2023-03-21T17:22:21;4.45;;;3.88;;
58669;SDS011;44439;47.924;10.198;2023-03-21T17:25:07;4.30;;;3.45;;
58669;SDS011;44439;47.924;10.198;2023-03-21T17:27:53;5.68;;;4.18;;
58669;SDS011;44439;47.924;10.198;2023-03-21T17:30:39;4.50;;;3.28;;
58669;SDS011;44439;47.924;10.198;2023-03-21T17:33:24;4.18;;;3.78;;
58669;SDS011;44439;47.924;10.198;2023-03-21T17:36:14;4.20;;;3.80;;
58669;SDS011;44439;47.924;10.198;2023-03-21T17:39:05;4.78;;;3.72;;
58669;SDS011;44439;47.924;10.198;2023-03-21T17:41:53;6.45;;;4.63;;
58669;SDS011;44439;47.924;10.198;2023-03-21T17:44:40;8.82;;;5.90;;
58669;SDS011;44439;47.924;10.198;2023-03-21T17:47:26;12.05;;;8.40;;
58669;SDS011;44439;47.924;10.198;2023-03-21T17:50:16;7.55;;;6.63;;
58669;SDS011;44439;47.924;10.198;2023-03-21T17:53:04;9.23;;;6.20;;
58669;SDS011;44439;47.924;10.198;2023-03-21T17:55:55;8.00;;;6.20;;
58669;SDS011;44439;47.924;10.198;2023-03-21T17:58:41;8.15;;;6.63;;
58669;SDS011;44439;47.924;10.198;2023-03-21T18:01:27;7.00;;;5.75;;
58669;SDS011;44439;47.924;10.198;2023-03-21T18:04:14;11.40;;;5.88;;
58669;SDS011;44439;47.924;10.198;2023-03-21T18:07:00;17.23;;;10.98;;